Time;durP1;ratioP1;P1;durP2;ratioP2;P2;SDS_P1;SDS_P2;PMS_P1;PMS_P2;Temp;Humidity;BMP_temperature;BMP_pressure;BME280_temperature;BME280_humidity;BME280_pressure;Samples;Min_cycle;Max_cycle;Signal;HPM_P1;HPM_P2
2023/12/11 00:01:33;;;;;;;0.20;0.20;;;;;;;;;;5092504;28;20035;-76
2023/12/11 00:03:58;;;;;;;0.20;0.20;;;;;;;;;;5091711;28;20028;-75
2023/12/11 00:06:24;;;;;;;0.20;0.20;;;;;;;;;;5091957;28;20020;-75
2023/12/11 00:08:50;;;;;;;0.10;0.10;;;;;;;;;;5091848;28;20108;-76
2023/12/11 00:11:15;;;;;;;0.10;0.10;;;;;;;;;;5091632;28;20470;-76
2023/12/11 00:13:42;;;;;;;0.10;0.10;;;;;;;;;;5091629;28;20040;-75
2023/12/11 00:16:09;;;;;;;0.10;0.10;;;;;;;;;;5092880;28;20143;-76
2023/12/11 00:18:35;;;;;;;0.10;0.10;;;;;;;;;;5095449;28;20032;-76
2023/12/11 00:21:02;;;;;;;0.40;0.40;;;;;;;;;;5095307;28;20032;-77
2023/12/11 00:23:29;;;;;;;0.20;0.20;;;;;;;;;;5095646;28;20036;-76
2023/12/11 00:25:55;;;;;;;0.15;0.15;;;;;;;;;;5060616;28;20016;-76
2023/12/11 00:28:25;;;;;;;0.20;0.20;;;;;;;;;;5095190;28;20020;-77
2023/12/11 00:31:12;;;;;;;0.10;0.10;;;;;;;;;;5095326;28;20020;-77
2023/12/11 00:33:39;;;;;;;1.73;1.67;;;;;;;;;;5095699;28;20063;-77
2023/12/11 00:43:01;;;;;;;0.10;0.10;;;;;;;;;;5095264;28;20113;-79
2023/12/11 00:45:27;;;;;;;0.10;0.10;;;;;;;;;;5076977;28;20024;-76
2023/12/11 00:47:56;;;;;;;0.15;0.15;;;;;;;;;;5094868;28;20032;-77
2023/12/11 00:50:24;;;;;;;0.10;0.10;;;;;;;;;;5076220;28;20028;-76
2023/12/11 00:52:52;;;;;;;0.10;0.10;;;;;;;;;;5076702;28;20024;-76
2023/12/11 00:55:18;;;;;;;0.10;0.10;;;;;;;;;;5094768;28;20069;-75
2023/12/11 00:57:45;;;;;;;0.43;0.43;;;;;;;;;;5076692;28;20031;-76
2023/12/11 01:00:11;;;;;;;0.10;0.10;;;;;;;;;;5076643;28;20468;-76
2023/12/11 01:02:38;;;;;;;0.10;0.10;;;;;;;;;;5076561;28;20035;-77
2023/12/11 01:05:04;;;;;;;0.10;0.10;;;;;;;;;;5076492;28;20016;-77
2023/12/11 01:07:30;;;;;;;0.20;0.20;;;;;;;;;;5059765;28;20369;-77
2023/12/11 01:09:55;;;;;;;0.10;0.10;;;;;;;;;;5094669;28;20077;-79
2023/12/11 01:12:21;;;;;;;0.17;0.17;;;;;;;;;;5094447;28;20032;-78
2023/12/11 01:14:47;;;;;;;0.15;0.15;;;;;;;;;;5094382;28;20055;-78
2023/12/11 01:17:12;;;;;;;0.10;0.10;;;;;;;;;;5094312;28;20026;-78
2023/12/11 01:19:39;;;;;;;0.10;0.10;;;;;;;;;;5078208;28;20158;-78
2023/12/11 01:22:04;;;;;;;0.10;0.10;;;;;;;;;;5097975;28;20032;-78
2023/12/11 01:24:30;;;;;;;0.10;0.10;;;;;;;;;;5079139;28;20032;-77
2023/12/11 01:26:56;;;;;;;0.10;0.10;;;;;;;;;;5076395;28;20031;-79
2023/12/11 01:29:22;;;;;;;0.10;0.10;;;;;;;;;;5076348;28;20024;-76
2023/12/11 01:31:48;;;;;;;0.10;0.10;;;;;;;;;;5094534;28;20032;-76
2023/12/11 01:34:15;;;;;;;0.10;0.10;;;;;;;;;;5076165;28;20119;-79
2023/12/11 01:36:42;;;;;;;0.10;0.10;;;;;;;;;;5076048;28;20028;-78
2023/12/11 01:39:08;;;;;;;0.10;0.10;;;;;;;;;;5094111;28;20103;-78
2023/12/11 01:41:34;;;;;;;0.10;0.10;;;;;;;;;;5094090;28;20181;-77
2023/12/11 01:43:59;;;;;;;0.10;0.10;;;;;;;;;;5076027;28;20032;-77
2023/12/11 01:46:25;;;;;;;0.10;0.10;;;;;;;;;;5094105;28;20055;-77
2023/12/11 01:48:52;;;;;;;0.13;0.13;;;;;;;;;;5059367;28;20024;-77
2023/12/11 01:51:18;;;;;;;0.10;0.10;;;;;;;;;;5076028;28;20519;-77
2023/12/11 01:53:46;;;;;;;0.10;0.10;;;;;;;;;;5094026;28;20499;-79
2023/12/11 01:56:12;;;;;;;0.10;0.10;;;;;;;;;;5076165;28;20032;-80
2023/12/11 01:58:38;;;;;;;0.10;0.10;;;;;;;;;;5076038;28;20038;-79
2023/12/11 02:01:05;;;;;;;0.10;0.10;;;;;;;;;;5075034;28;20123;-79
2023/12/11 02:03:31;;;;;;;0.10;0.10;;;;;;;;;;5075824;28;20031;-78
2023/12/11 02:05:57;;;;;;;0.10;0.10;;;;;;;;;;5093757;28;20024;-79
2023/12/11 02:08:23;;;;;;;1.17;1.08;;;;;;;;;;5093598;28;20069;-78
2023/12/11 02:10:49;;;;;;;0.10;0.10;;;;;;;;;;5075669;28;20407;-81
2023/12/11 02:13:15;;;;;;;0.55;0.55;;;;;;;;;;5075569;28;20364;-80
2023/12/11 02:15:42;;;;;;;0.10;0.10;;;;;;;;;;5076302;28;20027;-81
2023/12/11 02:18:08;;;;;;;0.10;0.10;;;;;;;;;;5075497;28;20051;-77
2023/12/11 02:20:35;;;;;;;0.10;0.10;;;;;;;;;;5093556;28;20101;-77
2023/12/11 02:23:03;;;;;;;0.10;0.10;;;;;;;;;;5094129;28;20430;-78
2023/12/11 02:25:30;;;;;;;0.10;0.10;;;;;;;;;;5075687;28;20023;-77
2023/12/11 02:27:57;;;;;;;0.10;0.10;;;;;;;;;;5093463;28;20502;-77
2023/12/11 02:30:24;;;;;;;0.10;0.10;;;;;;;;;;5075387;28;20032;-77
2023/12/11 02:32:52;;;;;;;0.30;0.30;;;;;;;;;;5059010;28;20024;-79
2023/12/11 02:35:18;;;;;;;0.45;0.40;;;;;;;;;;5093327;28;20052;-78
2023/12/11 02:37:44;;;;;;;0.10;0.10;;;;;;;;;;5075302;28;20066;-78
2023/12/11 02:40:10;;;;;;;0.10;0.10;;;;;;;;;;5075469;28;20035;-78
2023/12/11 02:42:36;;;;;;;0.10;0.10;;;;;;;;;;5075332;28;20043;-78
2023/12/11 02:45:02;;;;;;;0.10;0.10;;;;;;;;;;5093340;28;20467;-78
2023/12/11 02:47:27;;;;;;;0.10;0.10;;;;;;;;;;5093336;28;20043;-77
2023/12/11 02:49:53;;;;;;;0.10;0.10;;;;;;;;;;5074997;28;20028;-77
2023/12/11 02:52:19;;;;;;;0.10;0.10;;;;;;;;;;5093393;28;20383;-77
2023/12/11 02:54:46;;;;;;;0.10;0.10;;;;;;;;;;5075174;28;20035;-77
2023/12/11 02:57:11;;;;;;;0.10;0.10;;;;;;;;;;5093064;28;20028;-82
2023/12/11 02:59:37;;;;;;;0.10;0.10;;;;;;;;;;5093270;28;20062;-80
2023/12/11 03:02:03;;;;;;;0.10;0.10;;;;;;;;;;5075217;28;20036;-80
2023/12/11 03:04:29;;;;;;;0.10;0.10;;;;;;;;;;5074929;28;20020;-79
2023/12/11 03:06:55;;;;;;;0.10;0.10;;;;;;;;;;5093236;28;20036;-81
2023/12/11 03:09:21;;;;;;;0.10;0.10;;;;;;;;;;5075087;28;20501;-80
2023/12/11 03:11:46;;;;;;;0.10;0.10;;;;;;;;;;5093278;28;20036;-80
2023/12/11 03:14:12;;;;;;;0.10;0.10;;;;;;;;;;5078022;28;20089;-77
2023/12/11 03:16:38;;;;;;;0.10;0.10;;;;;;;;;;5078667;28;20106;-77
2023/12/11 03:19:04;;;;;;;0.10;0.10;;;;;;;;;;5061861;28;20039;-77
2023/12/11 03:21:30;;;;;;;0.10;0.10;;;;;;;;;;5096703;28;20388;-77
2023/12/11 03:23:55;;;;;;;0.10;0.10;;;;;;;;;;5069927;28;20452;-77
2023/12/11 03:26:21;;;;;;;0.10;0.10;;;;;;;;;;5078694;28;20024;-77
2023/12/11 03:28:47;;;;;;;0.10;0.10;;;;;;;;;;5077834;28;20035;-78
2023/12/11 03:31:13;;;;;;;0.10;0.10;;;;;;;;;;5058742;28;20107;-77
2023/12/11 03:33:39;;;;;;;0.20;0.20;;;;;;;;;;5076623;28;20029;-78
2023/12/11 03:36:04;;;;;;;0.13;0.13;;;;;;;;;;5076173;28;20036;-76
2023/12/11 03:38:30;;;;;;;13.35;12.18;;;;;;;;;;5076140;28;20093;-76
2023/12/11 03:40:56;;;;;;;0.10;0.10;;;;;;;;;;5076479;28;20040;-76
2023/12/11 03:43:22;;;;;;;0.10;0.10;;;;;;;;;;5058211;28;20039;-77
2023/12/11 03:45:47;;;;;;;0.10;0.10;;;;;;;;;;5076059;28;20029;-78
2023/12/11 03:48:13;;;;;;;0.10;0.10;;;;;;;;;;5057808;28;20058;-78
2023/12/11 03:50:39;;;;;;;0.08;0.08;;;;;;;;;;5058250;28;20456;-79
2023/12/11 03:53:05;;;;;;;0.10;0.10;;;;;;;;;;5076588;28;20035;-78
2023/12/11 03:55:31;;;;;;;0.10;0.10;;;;;;;;;;5058414;28;20067;-80
2023/12/11 03:57:57;;;;;;;0.10;0.10;;;;;;;;;;5075937;28;20467;-78
2023/12/11 04:00:22;;;;;;;0.20;0.20;;;;;;;;;;5075689;28;20444;-79
2023/12/11 04:02:48;;;;;;;0.32;0.32;;;;;;;;;;5054550;28;20063;-79
2023/12/11 04:05:14;;;;;;;0.10;0.10;;;;;;;;;;5054522;28;20028;-77
2023/12/11 04:07:40;;;;;;;0.10;0.10;;;;;;;;;;5072214;28;20032;-75
2023/12/11 04:10:06;;;;;;;0.10;0.10;;;;;;;;;;5071449;28;20024;-75
2023/12/11 04:12:32;;;;;;;0.10;0.10;;;;;;;;;;5071714;28;20086;-76
2023/12/11 04:14:58;;;;;;;0.10;0.10;;;;;;;;;;5071616;28;20052;-76
2023/12/11 04:17:23;;;;;;;0.10;0.10;;;;;;;;;;5053563;28;20021;-75
2023/12/11 04:19:49;;;;;;;0.57;0.57;;;;;;;;;;5071190;28;20062;-75
2023/12/11 04:22:15;;;;;;;0.10;0.10;;;;;;;;;;5071440;28;20032;-77
2023/12/11 04:24:41;;;;;;;0.10;0.10;;;;;;;;;;5070884;28;20035;-75
2023/12/11 04:27:06;;;;;;;0.10;0.10;;;;;;;;;;5071113;28;20021;-74
2023/12/11 04:29:32;;;;;;;0.10;0.10;;;;;;;;;;5071461;28;20028;-78
2023/12/11 04:31:58;;;;;;;0.10;0.10;;;;;;;;;;5053014;28;20032;-77
2023/12/11 04:34:24;;;;;;;0.10;0.10;;;;;;;;;;5071177;28;20024;-77
2023/12/11 04:36:50;;;;;;;0.10;0.10;;;;;;;;;;5071112;28;20456;-77
2023/12/11 04:39:15;;;;;;;0.10;0.10;;;;;;;;;;5053382;28;20033;-79
2023/12/11 04:41:41;;;;;;;0.15;0.15;;;;;;;;;;5070839;28;20070;-76
2023/12/11 04:44:07;;;;;;;0.10;0.10;;;;;;;;;;5070856;28;20130;-77
2023/12/11 04:46:33;;;;;;;0.08;0.08;;;;;;;;;;5070796;28;20035;-76
2023/12/11 04:48:58;;;;;;;0.10;0.10;;;;;;;;;;5071107;28;20032;-75
2023/12/11 04:51:26;;;;;;;0.10;0.10;;;;;;;;;;5036678;28;20059;-76
2023/12/11 04:53:52;;;;;;;0.10;0.10;;;;;;;;;;5070597;28;20032;-77
2023/12/11 04:56:18;;;;;;;0.10;0.10;;;;;;;;;;5070996;28;20337;-76
2023/12/11 04:58:44;;;;;;;0.35;0.35;;;;;;;;;;5036559;28;20033;-78
2023/12/11 05:01:10;;;;;;;0.20;0.20;;;;;;;;;;5052585;28;20455;-76
2023/12/11 05:03:45;;;;;;;0.10;0.10;;;;;;;;;;5053223;28;20551;-78
2023/12/11 05:06:14;;;;;;;0.10;0.10;;;;;;;;;;5053866;28;20054;-77
2023/12/11 05:08:40;;;;;;;0.10;0.10;;;;;;;;;;5052681;28;20029;-78
2023/12/11 05:11:06;;;;;;;0.10;0.10;;;;;;;;;;5070798;28;20481;-76
2023/12/11 05:13:31;;;;;;;0.68;0.68;;;;;;;;;;5070269;28;20020;-76
2023/12/11 05:15:58;;;;;;;0.10;0.10;;;;;;;;;;5052740;28;20427;-76
2023/12/11 05:18:23;;;;;;;0.10;0.10;;;;;;;;;;5070329;28;20036;-76
2023/12/11 05:20:49;;;;;;;0.10;0.10;;;;;;;;;;5070151;28;20028;-76
2023/12/11 05:23:15;;;;;;;0.88;0.85;;;;;;;;;;5070345;28;20024;-75
2023/12/11 05:25:40;;;;;;;0.30;0.30;;;;;;;;;;5072696;28;20031;-75
2023/12/11 05:28:06;;;;;;;0.10;0.10;;;;;;;;;;5055476;28;20032;-75
2023/12/11 05:30:32;;;;;;;0.38;0.38;;;;;;;;;;5072238;28;20411;-77
2023/12/11 05:32:59;;;;;;;0.17;0.17;;;;;;;;;;5070243;28;20033;-77
2023/12/11 05:35:25;;;;;;;0.15;0.15;;;;;;;;;;5052873;28;20029;-75
2023/12/11 05:37:51;;;;;;;0.10;0.10;;;;;;;;;;5070391;28;20086;-77
2023/12/11 05:40:16;;;;;;;0.10;0.10;;;;;;;;;;5070138;28;20028;-77
2023/12/11 05:42:42;;;;;;;0.10;0.10;;;;;;;;;;5069980;28;20040;-76
2023/12/11 05:45:09;;;;;;;0.10;0.10;;;;;;;;;;5069841;28;20029;-75
2023/12/11 05:47:35;;;;;;;0.10;0.10;;;;;;;;;;5070064;28;20028;-76
2023/12/11 05:50:04;;;;;;;0.10;0.10;;;;;;;;;;5051803;28;20838;-77
2023/12/11 05:52:29;;;;;;;0.10;0.10;;;;;;;;;;5051879;28;20029;-78
2023/12/11 05:54:55;;;;;;;0.10;0.10;;;;;;;;;;5070160;28;20353;-77
2023/12/11 05:57:21;;;;;;;0.10;0.10;;;;;;;;;;5069854;28;20430;-78
2023/12/11 05:59:47;;;;;;;0.10;0.10;;;;;;;;;;5051703;28;20023;-76
2023/12/11 06:02:16;;;;;;;0.10;0.10;;;;;;;;;;5051198;28;20031;-81
2023/12/11 06:04:42;;;;;;;0.10;0.10;;;;;;;;;;5089887;28;20024;-80
2023/12/11 06:07:07;;;;;;;0.10;0.10;;;;;;;;;;5089599;28;20250;-75
2023/12/11 06:09:33;;;;;;;0.10;0.10;;;;;;;;;;5088754;28;20395;-76
2023/12/11 06:11:59;;;;;;;0.13;0.13;;;;;;;;;;5087676;28;20028;-75
2023/12/11 06:14:25;;;;;;;0.10;0.10;;;;;;;;;;5068376;28;20340;-75
2023/12/11 06:16:50;;;;;;;0.20;0.20;;;;;;;;;;5069360;28;20566;-76
2023/12/11 06:19:16;;;;;;;0.10;0.10;;;;;;;;;;5087996;28;20032;-77
2023/12/11 06:21:43;;;;;;;0.10;0.10;;;;;;;;;;5082405;28;20123;-76
2023/12/11 06:24:08;;;;;;;0.10;0.10;;;;;;;;;;5065781;28;20035;-77
2023/12/11 06:26:34;;;;;;;0.10;0.10;;;;;;;;;;5089684;28;20468;-78
2023/12/11 06:29:00;;;;;;;0.10;0.10;;;;;;;;;;5086955;28;21800;-80
2023/12/11 06:31:26;;;;;;;0.10;0.10;;;;;;;;;;5070570;28;20047;-76
2023/12/11 06:33:52;;;;;;;0.10;0.10;;;;;;;;;;5088748;28;20039;-79
2023/12/11 06:36:18;;;;;;;0.10;0.10;;;;;;;;;;5067695;28;20028;-80
2023/12/11 06:38:44;;;;;;;0.15;0.15;;;;;;;;;;5079470;28;20468;-78
2023/12/11 06:41:09;;;;;;;0.10;0.10;;;;;;;;;;5079454;28;20025;-76
2023/12/11 06:43:37;;;;;;;0.10;0.10;;;;;;;;;;5077353;28;20468;-76
2023/12/11 06:46:03;;;;;;;0.20;0.20;;;;;;;;;;5086438;28;20078;-77
2023/12/11 06:48:29;;;;;;;0.10;0.10;;;;;;;;;;5055260;28;20464;-80
2023/12/11 06:50:55;;;;;;;0.10;0.10;;;;;;;;;;5093063;28;20028;-82
2023/12/11 06:53:20;;;;;;;0.20;0.20;;;;;;;;;;5091155;28;20395;-77
2023/12/11 06:55:46;;;;;;;0.10;0.10;;;;;;;;;;5090206;28;20077;-77
2023/12/11 06:58:12;;;;;;;0.20;0.20;;;;;;;;;;5090450;28;20077;-75
2023/12/11 07:00:38;;;;;;;0.10;0.10;;;;;;;;;;5085839;28;20402;-77
2023/12/11 07:03:04;;;;;;;0.10;0.10;;;;;;;;;;5064377;28;20024;-77
2023/12/11 07:05:30;;;;;;;0.20;0.20;;;;;;;;;;5055397;28;20032;-74
2023/12/11 07:07:56;;;;;;;0.10;0.10;;;;;;;;;;5093040;28;20081;-74
2023/12/11 07:10:22;;;;;;;0.10;0.10;;;;;;;;;;5092987;28;20019;-75
2023/12/11 07:12:49;;;;;;;0.10;0.10;;;;;;;;;;5093131;28;20035;-76
2023/12/11 07:15:14;;;;;;;0.10;0.10;;;;;;;;;;5092699;28;20411;-76
2023/12/11 07:17:40;;;;;;;0.10;0.10;;;;;;;;;;5092928;28;20028;-76
2023/12/11 07:20:06;;;;;;;0.10;0.10;;;;;;;;;;5074467;28;20322;-77
2023/12/11 07:22:34;;;;;;;0.10;0.10;;;;;;;;;;5074216;28;20043;-76
2023/12/11 07:25:00;;;;;;;0.10;0.10;;;;;;;;;;5092802;28;20024;-75
2023/12/11 07:27:25;;;;;;;0.15;0.15;;;;;;;;;;5094785;28;20032;-76
2023/12/11 07:29:51;;;;;;;0.13;0.13;;;;;;;;;;5094268;28;20032;-75
2023/12/11 07:32:17;;;;;;;0.10;0.10;;;;;;;;;;5093544;28;20101;-77
2023/12/11 07:34:45;;;;;;;0.10;0.10;;;;;;;;;;5074123;28;20024;-79
2023/12/11 07:37:11;;;;;;;0.10;0.10;;;;;;;;;;5092708;28;20028;-76
2023/12/11 07:39:38;;;;;;;0.10;0.10;;;;;;;;;;5092339;28;20437;-76
2023/12/11 07:42:04;;;;;;;0.10;0.10;;;;;;;;;;5092685;28;20506;-76
2023/12/11 07:44:29;;;;;;;0.13;0.13;;;;;;;;;;5092490;28;20059;-75
2023/12/11 07:46:55;;;;;;;0.20;0.20;;;;;;;;;;5074903;28;20062;-78
2023/12/11 07:49:20;;;;;;;0.10;0.10;;;;;;;;;;5092537;28;20024;-75
2023/12/11 07:51:46;;;;;;;0.40;0.40;;;;;;;;;;5092291;28;20031;-77
2023/12/11 07:54:12;;;;;;;0.13;0.13;;;;;;;;;;5092096;28;20020;-76
2023/12/11 07:56:37;;;;;;;0.20;0.20;;;;;;;;;;5091984;28;20504;-77
2023/12/11 07:59:03;;;;;;;3.30;3.10;;;;;;;;;;5090797;28;20024;-75
2023/12/11 08:01:30;;;;;;;0.17;0.17;;;;;;;;;;5092154;28;20043;-78
2023/12/11 08:03:57;;;;;;;0.85;0.85;;;;;;;;;;5088421;28;20020;-76
2023/12/11 08:06:23;;;;;;;0.13;0.13;;;;;;;;;;5087238;28;20024;-79
2023/12/11 08:08:52;;;;;;;0.10;0.10;;;;;;;;;;5053921;28;20032;-76
2023/12/11 08:11:20;;;;;;;0.70;0.70;;;;;;;;;;5062199;28;20028;-77
2023/12/11 08:13:46;;;;;;;0.20;0.20;;;;;;;;;;5089526;28;20146;-79
2023/12/11 08:16:13;;;;;;;0.20;0.20;;;;;;;;;;5057162;28;20032;-76
2023/12/11 08:18:43;;;;;;;0.20;0.20;;;;;;;;;;5072808;28;20024;-77
2023/12/11 08:21:08;;;;;;;;;;;;;;;;;;5091000;28;20388;-78
2023/12/11 08:23:34;;;;;;;0.17;0.17;;;;;;;;;;5109693;28;19960;-76
2023/12/11 08:26:00;;;;;;;0.20;0.20;;;;;;;;;;5075714;28;20028;-76
2023/12/11 08:28:26;;;;;;;0.10;0.10;;;;;;;;;;5073141;28;20036;-76
2023/12/11 08:30:52;;;;;;;0.10;0.10;;;;;;;;;;5072130;28;21812;-79
2023/12/11 08:33:17;;;;;;;0.10;0.10;;;;;;;;;;5089859;28;20047;-75
2023/12/11 08:35:43;;;;;;;0.20;0.20;;;;;;;;;;5090922;28;20038;-75
2023/12/11 08:38:09;;;;;;;0.10;0.10;;;;;;;;;;5091558;28;20058;-77
2023/12/11 08:40:35;;;;;;;0.10;0.10;;;;;;;;;;5073028;28;20028;-76
2023/12/11 08:43:00;;;;;;;0.20;0.20;;;;;;;;;;5072916;28;20020;-76
2023/12/11 08:45:26;;;;;;;0.10;0.10;;;;;;;;;;5091292;28;20540;-76
2023/12/11 08:47:51;;;;;;;0.20;0.20;;;;;;;;;;5111218;28;20024;-76
2023/12/11 08:50:17;;;;;;;0.63;0.63;;;;;;;;;;5105469;28;20466;-77
2023/12/11 08:52:44;;;;;;;0.10;0.10;;;;;;;;;;5090250;28;20028;-75
2023/12/11 08:55:09;;;;;;;0.10;0.10;;;;;;;;;;5089371;28;20077;-78
2023/12/11 08:57:35;;;;;;;0.10;0.10;;;;;;;;;;5072875;28;20422;-78
2023/12/11 09:00:03;;;;;;;0.10;0.10;;;;;;;;;;5088421;28;20105;-78
2023/12/11 09:02:29;;;;;;;0.10;0.10;;;;;;;;;;5090790;28;20047;-80
2023/12/11 09:04:55;;;;;;;0.10;0.10;;;;;;;;;;5087048;28;20028;-78
2023/12/11 09:07:20;;;;;;;0.10;0.10;;;;;;;;;;5090607;28;20028;-78
2023/12/11 09:09:46;;;;;;;0.10;0.10;;;;;;;;;;5088451;28;20030;-76
2023/12/11 09:12:12;;;;;;;0.47;0.47;;;;;;;;;;5090438;28;20118;-75
2023/12/11 09:14:44;;;;;;;0.10;0.10;;;;;;;;;;5090041;28;20317;-78
2023/12/11 09:17:10;;;;;;;0.10;0.10;;;;;;;;;;5090903;28;20032;-79
2023/12/11 09:19:36;;;;;;;0.10;0.10;;;;;;;;;;5090381;28;20032;-80
2023/12/11 09:22:02;;;;;;;0.13;0.13;;;;;;;;;;5090218;28;20032;-76
2023/12/11 09:24:27;;;;;;;0.55;0.55;;;;;;;;;;5072446;28;20024;-77
2023/12/11 09:26:53;;;;;;;0.10;0.10;;;;;;;;;;5059571;28;20055;-80
2023/12/11 09:29:19;;;;;;;0.10;0.10;;;;;;;;;;5094115;28;20055;-78
2023/12/11 09:31:45;;;;;;;0.20;0.20;;;;;;;;;;5090573;28;20097;-78
2023/12/11 09:34:11;;;;;;;0.10;0.10;;;;;;;;;;5070718;28;20855;-78
2023/12/11 09:36:37;;;;;;;0.32;0.32;;;;;;;;;;5070411;28;20038;-78
2023/12/11 09:39:04;;;;;;;0.10;0.10;;;;;;;;;;5053307;28;20034;-79
2023/12/11 09:41:34;;;;;;;0.10;0.10;;;;;;;;;;5088235;28;20039;-77
2023/12/11 09:44:00;;;;;;;0.10;0.10;;;;;;;;;;5052643;28;20061;-79
2023/12/11 09:46:28;;;;;;;0.10;0.10;;;;;;;;;;5088502;28;20116;-76
2023/12/11 09:48:54;;;;;;;0.10;0.10;;;;;;;;;;5088598;28;20031;-78
2023/12/11 09:51:19;;;;;;;0.10;0.10;;;;;;;;;;5088300;28;20471;-77
2023/12/11 09:53:46;;;;;;;0.10;0.10;;;;;;;;;;5087902;28;20028;-75
2023/12/11 09:56:12;;;;;;;0.10;0.10;;;;;;;;;;5069582;28;20039;-75
2023/12/11 09:58:39;;;;;;;0.10;0.10;;;;;;;;;;5050747;28;20021;-78
2023/12/11 10:01:06;;;;;;;0.10;0.10;;;;;;;;;;5052923;28;20036;-77
2023/12/11 10:03:32;;;;;;;0.28;0.28;;;;;;;;;;5088058;28;20024;-78
2023/12/11 10:05:59;;;;;;;0.10;0.10;;;;;;;;;;5087571;28;20031;-77
2023/12/11 10:08:25;;;;;;;0.10;0.10;;;;;;;;;;5052627;28;20472;-78
2023/12/11 10:11:11;;;;;;;0.10;0.10;;;;;;;;;;5087844;28;20036;-79
2023/12/11 10:13:42;;;;;;;0.10;0.10;;;;;;;;;;5087196;28;20040;-78
2023/12/11 10:16:26;;;;;;;0.50;0.47;;;;;;;;;;5069689;28;20364;-79
2023/12/11 10:18:51;;;;;;;0.10;0.10;;;;;;;;;;5087707;28;20031;-79
2023/12/11 10:21:17;;;;;;;0.10;0.10;;;;;;;;;;5087013;28;20046;-75
2023/12/11 10:23:43;;;;;;;0.40;0.40;;;;;;;;;;5088905;28;20559;-78
2023/12/11 10:26:08;;;;;;;0.10;0.10;;;;;;;;;;5073685;28;20039;-78
2023/12/11 10:28:34;;;;;;;0.30;0.30;;;;;;;;;;5073565;28;20032;-77
2023/12/11 10:31:01;;;;;;;1.00;1.00;;;;;;;;;;5073914;28;20487;-79
2023/12/11 10:33:30;;;;;;;0.15;0.15;;;;;;;;;;5056354;28;20038;-77
2023/12/11 10:36:10;;;;;;;0.10;0.10;;;;;;;;;;5073590;28;20040;-76
2023/12/11 10:38:36;;;;;;;0.10;0.10;;;;;;;;;;5088512;28;20300;-77
2023/12/11 10:41:01;;;;;;;0.13;0.13;;;;;;;;;;5082154;28;20021;-78
2023/12/11 10:43:28;;;;;;;0.10;0.10;;;;;;;;;;5079172;28;20115;-78
2023/12/11 10:45:54;;;;;;;0.10;0.10;;;;;;;;;;5076705;28;20507;-78
2023/12/11 10:48:20;;;;;;;0.10;0.10;;;;;;;;;;5085552;28;20028;-77
2023/12/11 10:50:46;;;;;;;0.10;0.10;;;;;;;;;;5068036;28;20042;-78
2023/12/11 10:53:12;;;;;;;0.10;0.10;;;;;;;;;;5066366;28;20136;-76
2023/12/11 10:55:38;;;;;;;0.10;0.10;;;;;;;;;;5080205;28;20029;-79
2023/12/11 10:58:06;;;;;;;0.10;0.10;;;;;;;;;;5081497;28;20028;-77
2023/12/11 11:00:32;;;;;;;0.10;0.10;;;;;;;;;;5059151;28;20029;-77
2023/12/11 11:03:00;;;;;;;0.10;0.10;;;;;;;;;;5086320;28;20093;-79
2023/12/11 11:05:26;;;;;;;0.10;0.10;;;;;;;;;;5082027;28;20024;-79
2023/12/11 11:07:59;;;;;;;0.32;0.32;;;;;;;;;;5085788;28;20077;-77
2023/12/11 11:10:28;;;;;;;0.10;0.10;;;;;;;;;;5055013;28;20432;-75
2023/12/11 11:13:01;;;;;;;0.10;0.10;;;;;;;;;;5083315;28;20024;-78
2023/12/11 11:15:30;;;;;;;0.10;0.10;;;;;;;;;;5052269;28;20051;-78
2023/12/11 11:18:06;;;;;;;0.63;0.63;;;;;;;;;;5058250;28;20157;-77
2023/12/11 11:20:35;;;;;;;0.10;0.10;;;;;;;;;;5060731;28;20075;-78
2023/12/11 11:23:13;;;;;;;0.20;0.20;;;;;;;;;;5063396;28;20480;-78
2023/12/11 11:25:39;;;;;;;0.17;0.17;;;;;;;;;;5092672;28;20028;-78
2023/12/11 11:28:04;;;;;;;0.10;0.10;;;;;;;;;;5076707;28;20444;-76
2023/12/11 11:30:44;;;;;;;0.10;0.10;;;;;;;;;;5075894;28;20020;-78
2023/12/11 11:33:10;;;;;;;0.10;0.10;;;;;;;;;;5073028;28;20475;-78
2023/12/11 11:35:45;;;;;;;0.10;0.10;;;;;;;;;;5073201;28;20503;-79
2023/12/11 11:38:12;;;;;;;0.10;0.10;;;;;;;;;;5090958;28;20036;-78
2023/12/11 11:40:38;;;;;;;0.10;0.10;;;;;;;;;;5090686;28;20081;-78
2023/12/11 11:43:07;;;;;;;0.10;0.10;;;;;;;;;;5071193;28;20521;-76
2023/12/11 11:45:33;;;;;;;0.10;0.10;;;;;;;;;;5090362;28;20036;-78
2023/12/11 11:47:58;;;;;;;0.15;0.15;;;;;;;;;;5086191;28;20051;-75
2023/12/11 11:50:24;;;;;;;0.10;0.10;;;;;;;;;;5060285;28;20476;-79
2023/12/11 11:52:54;;;;;;;0.10;0.10;;;;;;;;;;5052232;28;20365;-77
2023/12/11 11:55:26;;;;;;;0.10;0.10;;;;;;;;;;5070435;28;20498;-79
2023/12/11 11:57:55;;;;;;;0.20;0.20;;;;;;;;;;5069604;28;20116;-79
2023/12/11 12:00:22;;;;;;;0.10;0.10;;;;;;;;;;5052168;28;20024;-79
2023/12/11 12:02:54;;;;;;;0.10;0.10;;;;;;;;;;5035651;28;20878;-79
2023/12/11 12:05:20;;;;;;;0.10;0.10;;;;;;;;;;5070056;28;20028;-78
2023/12/11 12:07:46;;;;;;;3.50;1.15;;;;;;;;;;5073700;28;20019;-77
2023/12/11 12:10:42;;;;;;;0.20;0.20;;;;;;;;;;5144663;22;20053;-70
2023/12/11 12:13:08;;;;;;;0.25;0.25;;;;;;;;;;5023301;28;20468;-71
2023/12/11 12:15:45;;;;;;;0.30;0.30;;;;;;;;;;5047358;28;20032;-73
2023/12/11 12:18:12;;;;;;;4.03;3.78;;;;;;;;;;5035484;28;20034;-74
2023/12/11 12:20:42;;;;;;;0.45;0.45;;;;;;;;;;4995042;28;20120;-74
2023/12/11 12:23:08;;;;;;;0.30;0.30;;;;;;;;;;5041069;28;20036;-77
2023/12/11 12:25:34;;;;;;;2.03;1.30;;;;;;;;;;5043248;28;20017;-74
2023/12/11 12:28:12;;;;;;;0.10;0.10;;;;;;;;;;5025562;28;20029;-75
2023/12/11 12:30:38;;;;;;;0.20;0.20;;;;;;;;;;5040381;28;20021;-72
2023/12/11 12:33:08;;;;;;;0.77;0.55;;;;;;;;;;5047852;28;20060;-82
2023/12/11 12:35:34;;;;;;;;;;;;;;;;;;5039711;28;20125;-71
2023/12/11 12:38:02;;;;;;;0.75;0.75;;;;;;;;;;5015362;28;19919;-73
2023/12/11 12:40:31;;;;;;;0.10;0.10;;;;;;;;;;5030502;28;20025;-73
2023/12/11 12:42:57;;;;;;;0.10;0.10;;;;;;;;;;5029516;28;20692;-73
2023/12/11 12:45:24;;;;;;;3.35;1.73;;;;;;;;;;5029836;28;20024;-79
2023/12/11 12:47:50;;;;;;;0.20;0.20;;;;;;;;;;5028698;28;20029;-75
2023/12/11 12:50:25;;;;;;;1.35;0.68;;;;;;;;;;5048468;28;20380;-72
2023/12/11 12:52:51;;;;;;;0.10;0.10;;;;;;;;;;5048736;28;20118;-75
2023/12/11 12:55:27;;;;;;;1.85;1.75;;;;;;;;;;5030531;28;20028;-72
2023/12/11 12:57:53;;;;;;;0.10;0.10;;;;;;;;;;5048511;28;20017;-75
2023/12/11 13:00:22;;;;;;;0.43;0.40;;;;;;;;;;5046537;28;20037;-75
2023/12/11 13:02:48;;;;;;;0.10;0.10;;;;;;;;;;5046547;28;20033;-76
2023/12/11 13:05:14;;;;;;;0.10;0.10;;;;;;;;;;5042746;28;20029;-73
2023/12/11 13:07:40;;;;;;;0.25;0.25;;;;;;;;;;5040950;28;20483;-73
2023/12/11 13:10:13;;;;;;;0.65;0.47;;;;;;;;;;5029657;28;20029;-73
2023/12/11 13:12:40;;;;;;;0.10;0.10;;;;;;;;;;5045942;28;20123;-74
2023/12/11 13:15:09;;;;;;;0.68;0.68;;;;;;;;;;5047723;28;20104;-74
2023/12/11 13:17:34;;;;;;;0.10;0.10;;;;;;;;;;5047828;28;20017;-74
2023/12/11 13:20:03;;;;;;;0.20;0.20;;;;;;;;;;5046956;28;20036;-75
2023/12/11 13:22:39;;;;;;;0.10;0.10;;;;;;;;;;5047157;28;20041;-74
2023/12/11 13:25:07;;;;;;;0.20;0.20;;;;;;;;;;5025341;28;20789;-75
2023/12/11 13:27:39;;;;;;;0.10;0.10;;;;;;;;;;5042935;28;20033;-75
2023/12/11 13:30:05;;;;;;;0.10;0.10;;;;;;;;;;5028266;28;20037;-74
2023/12/11 13:32:31;;;;;;;0.10;0.10;;;;;;;;;;5027349;28;20037;-75
2023/12/11 13:34:56;;;;;;;0.10;0.10;;;;;;;;;;5027027;28;20037;-75
2023/12/11 13:37:22;;;;;;;0.10;0.10;;;;;;;;;;5027190;28;20140;-74
2023/12/11 13:39:48;;;;;;;0.10;0.10;;;;;;;;;;5036000;28;20353;-74
2023/12/11 13:42:13;;;;;;;0.10;0.10;;;;;;;;;;5023721;28;20033;-74
2023/12/11 13:44:39;;;;;;;0.20;0.20;;;;;;;;;;5019699;28;20021;-76
2023/12/11 13:47:05;;;;;;;0.10;0.10;;;;;;;;;;5042128;28;20020;-74
2023/12/11 13:49:32;;;;;;;0.10;0.10;;;;;;;;;;5045638;28;20067;-74
2023/12/11 13:51:58;;;;;;;0.20;0.20;;;;;;;;;;5043641;28;20074;-73
2023/12/11 13:54:23;;;;;;;0.13;0.13;;;;;;;;;;5034045;28;20033;-74
2023/12/11 13:56:49;;;;;;;0.20;0.20;;;;;;;;;;5053263;28;20037;-74
2023/12/11 13:59:15;;;;;;;0.20;0.20;;;;;;;;;;5047269;28;20432;-75
2023/12/11 14:01:41;;;;;;;0.10;0.10;;;;;;;;;;5047038;28;20041;-74
2023/12/11 14:04:06;;;;;;;0.30;0.30;;;;;;;;;;5047510;28;20024;-74
2023/12/11 14:06:32;;;;;;;0.10;0.10;;;;;;;;;;5046321;28;20375;-76
2023/12/11 14:08:58;;;;;;;0.10;0.10;;;;;;;;;;5047146;28;20183;-78
2023/12/11 14:11:24;;;;;;;0.50;0.25;;;;;;;;;;5044968;28;20049;-76
2023/12/11 14:13:50;;;;;;;0.10;0.10;;;;;;;;;;5027850;28;20078;-77
2023/12/11 14:16:15;;;;;;;0.20;0.20;;;;;;;;;;5047456;28;20038;-74
2023/12/11 14:18:41;;;;;;;0.10;0.10;;;;;;;;;;5047144;28;20032;-76
2023/12/11 14:21:09;;;;;;;0.43;0.43;;;;;;;;;;5026506;28;20519;-75
2023/12/11 14:23:38;;;;;;;1.95;0.25;;;;;;;;;;5046722;28;20029;-76
2023/12/11 14:26:05;;;;;;;0.10;0.10;;;;;;;;;;5047155;28;20025;-75
2023/12/11 14:28:32;;;;;;;0.10;0.10;;;;;;;;;;5028983;28;20040;-78
2023/12/11 14:30:57;;;;;;;0.20;0.20;;;;;;;;;;5028380;28;20543;-75
2023/12/11 14:33:23;;;;;;;0.10;0.10;;;;;;;;;;5046030;28;20036;-79
2023/12/11 14:35:49;;;;;;;0.38;0.38;;;;;;;;;;5038685;28;20033;-76
2023/12/11 14:38:16;;;;;;;0.20;0.20;;;;;;;;;;5034903;28;20721;-76
2023/12/11 14:40:42;;;;;;;0.10;0.10;;;;;;;;;;5033308;28;20059;-76
2023/12/11 14:43:08;;;;;;;0.10;0.10;;;;;;;;;;5031957;28;20040;-75
2023/12/11 14:45:34;;;;;;;0.10;0.10;;;;;;;;;;5035487;28;20021;-76
2023/12/11 14:48:00;;;;;;;0.10;0.10;;;;;;;;;;5022484;28;20107;-76